Time;durP1;ratioP1;P1;durP2;ratioP2;P2;SDS_P1;SDS_P2;PMS_P1;PMS_P2;Temp;Humidity;BMP_temperature;BMP_pressure;BME280_temperature;BME280_humidity;BME280_pressure;Samples;Min_cycle;Max_cycle;Signal;HPM_P1;HPM_P2
2022/09/08 00:01:16;;;;;;;3.33;1.02;;;20.10;99.90;;;;;;5070577;28;20246;-83
2022/09/08 00:03:47;;;;;;;3.33;1.00;;;20.10;99.90;;;;;;5069567;28;20604;-83
2022/09/08 00:06:23;;;;;;;2.72;0.90;;;20.20;99.90;;;;;;5070625;28;20615;-84
2022/09/08 00:08:55;;;;;;;3.97;1.27;;;20.20;99.90;;;;;;5063069;28;20197;-86
2022/09/08 00:11:30;;;;;;;3.60;0.88;;;20.30;99.90;;;;;;5068362;28;20219;-86
2022/09/08 00:14:02;;;;;;;2.40;0.80;;;20.30;99.90;;;;;;5054420;28;20596;-86
2022/09/08 00:16:33;;;;;;;3.67;0.77;;;20.30;99.90;;;;;;5067611;28;20234;-86
2022/09/08 00:19:04;;;;;;;4.10;0.70;;;20.50;99.90;;;;;;5054394;28;20181;-86
2022/09/08 00:21:37;;;;;;;2.83;0.90;;;20.50;99.90;;;;;;5054121;28;20254;-86
2022/09/08 00:24:09;;;;;;;3.33;1.00;;;20.60;99.90;;;;;;5053382;28;20566;-85
2022/09/08 00:26:40;;;;;;;3.58;0.95;;;20.40;99.90;;;;;;5066504;28;20220;-89
2022/09/08 00:29:12;;;;;;;3.20;0.77;;;20.40;99.90;;;;;;5063466;28;20215;-91
2022/09/08 00:31:44;;;;;;;1.65;0.80;;;20.20;99.90;;;;;;5070330;28;20196;-88
2022/09/08 00:34:15;;;;;;;2.63;0.60;;;20.20;99.90;;;;;;5058616;28;20232;-87
2022/09/08 00:36:48;;;;;;;2.60;0.90;;;20.10;99.90;;;;;;5054778;28;20201;-88
2022/09/08 00:39:19;;;;;;;5.00;0.80;;;20.00;99.90;;;;;;5070558;28;20240;-89
2022/09/08 00:41:50;;;;;;;3.97;1.15;;;20.10;99.90;;;;;;5072236;28;20569;-87
2022/09/08 00:44:48;;;;;;;4.80;0.82;;;20.10;99.90;;;;;;5063646;28;20196;-87
2022/09/08 00:47:23;;;;;;;5.50;1.38;;;20.00;99.90;;;;;;5059919;28;20839;-87
2022/09/08 00:49:59;;;;;;;6.50;1.25;;;20.10;99.90;;;;;;5051341;28;20233;-86
2022/09/08 00:52:39;;;;;;;5.38;1.02;;;20.20;99.90;;;;;;5051972;28;20200;-86
2022/09/08 00:55:12;;;;;;;8.05;1.67;;;20.30;99.90;;;;;;5048979;28;20224;-87
2022/09/08 00:57:43;;;;;;;3.60;0.98;;;20.50;99.90;;;;;;5055164;28;20718;-87
2022/09/08 01:00:19;;;;;;;2.97;0.88;;;20.60;99.90;;;;;;5064869;28;20206;-86
2022/09/08 01:02:51;;;;;;;2.55;0.80;;;20.60;99.90;;;;;;5053874;28;20205;-88
2022/09/08 01:05:24;;;;;;;2.60;0.85;;;20.60;99.90;;;;;;5050735;28;20219;-86
2022/09/08 01:14:01;;;;;;;2.13;0.70;;;21.00;99.90;;;;;;5051402;28;20948;-85
2022/09/08 01:16:39;;;;;;;2.92;0.75;;;21.00;99.90;;;;;;5051443;28;20227;-86
2022/09/08 01:19:15;;;;;;;2.55;1.00;;;21.20;99.90;;;;;;5050415;28;20243;-86
2022/09/08 01:22:06;;;;;;;3.80;0.93;;;21.20;99.90;;;;;;5052254;28;20201;-86
2022/09/08 01:24:53;;;;;;;3.28;0.80;;;21.20;99.90;;;;;;5053204;28;20212;-87
2022/09/08 01:27:28;;;;;;;2.15;0.75;;;21.20;99.90;;;;;;5052194;28;20220;-86
2022/09/08 01:30:03;;;;;;;2.67;0.82;;;21.30;99.90;;;;;;5050497;28;20222;-87
2022/09/08 01:32:36;;;;;;;4.60;0.80;;;21.30;99.90;;;;;;5051395;28;20200;-86
2022/09/08 01:35:10;;;;;;;6.13;0.90;;;21.30;99.90;;;;;;5047972;28;20232;-85
2022/09/08 01:37:41;;;;;;;4.03;1.15;;;21.40;99.90;;;;;;5051113;28;20202;-85
2022/09/08 01:40:12;;;;;;;2.50;0.80;;;21.40;99.90;;;;;;5049270;28;20215;-85
2022/09/08 01:42:45;;;;;;;3.05;0.90;;;21.50;99.90;;;;;;5049965;28;20208;-85
2022/09/08 01:45:15;;;;;;;3.33;1.00;;;21.50;99.90;;;;;;5047515;28;20207;-85
2022/09/08 01:47:46;;;;;;;6.20;1.25;;;21.50;99.90;;;;;;5049040;28;20200;-84
2022/09/08 01:50:17;;;;;;;4.20;0.98;;;21.50;99.90;;;;;;5050029;28;20218;-85
2022/09/08 01:52:48;;;;;;;3.45;0.90;;;21.50;99.90;;;;;;5050103;28;20199;-85
2022/09/08 01:55:19;;;;;;;3.65;1.10;;;21.50;99.90;;;;;;5049180;28;20225;-84
2022/09/08 01:57:52;;;;;;;6.22;1.38;;;21.50;99.90;;;;;;5050082;28;20257;-85
2022/09/08 02:00:22;;;;;;;5.85;1.00;;;21.50;99.90;;;;;;5047651;28;20299;-84
2022/09/08 02:02:53;;;;;;;5.32;1.33;;;21.60;99.90;;;;;;5048651;28;20205;-85
2022/09/08 02:05:24;;;;;;;5.43;1.23;;;21.60;99.90;;;;;;5048743;28;20682;-85
2022/09/08 02:07:56;;;;;;;3.90;1.20;;;21.60;99.90;;;;;;5048978;28;20210;-86
2022/09/08 02:10:27;;;;;;;5.10;1.10;;;21.60;99.90;;;;;;5050330;28;20193;-85
2022/09/08 02:13:00;;;;;;;6.85;1.20;;;21.60;99.90;;;;;;5048442;28;20199;-85
2022/09/08 02:15:31;;;;;;;4.78;1.10;;;21.70;99.90;;;;;;5045568;28;20228;-86
2022/09/08 02:18:02;;;;;;;8.55;1.60;;;21.80;99.90;;;;;;5050133;28;20676;-87
2022/09/08 02:20:33;;;;;;;5.13;1.05;;;21.70;99.90;;;;;;5054459;28;20204;-87
2022/09/08 02:23:03;;;;;;;4.70;1.10;;;21.70;99.90;;;;;;5052099;28;20203;-87
2022/09/08 02:25:34;;;;;;;4.57;1.10;;;21.90;99.90;;;;;;5052059;28;20200;-87
2022/09/08 02:28:07;;;;;;;10.15;1.20;;;21.90;99.90;;;;;;5051998;28;20191;-86
2022/09/08 02:30:38;;;;;;;4.38;1.20;;;22.10;99.90;;;;;;5051444;28;20200;-84
2022/09/08 02:33:09;;;;;;;3.65;1.10;;;22.20;99.90;;;;;;5049401;28;20210;-85
2022/09/08 02:35:39;;;;;;;8.20;1.30;;;22.30;99.90;;;;;;5052574;28;20567;-83
2022/09/08 02:38:10;;;;;;;5.85;1.20;;;22.30;99.90;;;;;;5050732;28;20232;-83
2022/09/08 02:40:41;;;;;;;7.18;1.15;;;22.40;99.90;;;;;;5048972;28;20211;-85
2022/09/08 02:43:13;;;;;;;5.70;1.20;;;22.40;99.90;;;;;;5049422;28;20230;-84
2022/09/08 02:45:46;;;;;;;5.10;1.10;;;22.40;99.90;;;;;;5062813;28;20200;-85
2022/09/08 02:48:16;;;;;;;7.93;1.20;;;22.30;99.90;;;;;;5060401;28;20242;-87
2022/09/08 02:50:47;;;;;;;4.25;1.30;;;22.20;99.90;;;;;;5064978;28;20276;-86
2022/09/08 02:53:18;;;;;;;4.93;1.02;;;22.20;99.90;;;;;;5066045;28;20215;-86
2022/09/08 02:55:50;;;;;;;6.03;1.30;;;22.20;99.90;;;;;;5053991;28;20216;-85
2022/09/08 02:58:23;;;;;;;4.18;1.27;;;22.10;99.90;;;;;;5060404;28;20188;-86
2022/09/08 03:00:54;;;;;;;5.57;1.10;;;22.10;99.90;;;;;;5078901;28;20244;-85
2022/09/08 03:03:25;;;;;;;5.38;1.20;;;22.30;99.90;;;;;;5076008;28;20442;-87
2022/09/08 03:05:56;;;;;;;4.75;1.17;;;22.30;99.90;;;;;;5071564;28;20196;-86
2022/09/08 03:08:27;;;;;;;5.88;1.30;;;22.40;99.90;;;;;;5072643;28;20184;-87
2022/09/08 03:10:58;;;;;;;8.27;1.20;;;22.50;99.90;;;;;;5071112;28;20343;-87
2022/09/08 03:13:31;;;;;;;6.50;1.20;;;22.50;99.90;;;;;;5071362;28;20188;-86
2022/09/08 03:16:02;;;;;;;5.93;1.38;;;22.60;99.90;;;;;;5053655;28;20220;-85
2022/09/08 03:18:33;;;;;;;6.50;1.20;;;22.60;99.90;;;;;;5075733;28;20211;-86
2022/09/08 03:21:06;;;;;;;5.63;1.00;;;22.60;99.90;;;;;;5058440;28;20647;-86
2022/09/08 03:23:37;;;;;;;4.05;0.98;;;22.60;99.90;;;;;;5075326;28;20200;-86
2022/09/08 03:26:10;;;;;;;3.00;1.00;;;22.40;99.90;;;;;;5067432;28;20193;-87
2022/09/08 03:28:45;;;;;;;6.47;1.27;;;22.50;99.90;;;;;;5074156;28;20196;-86
2022/09/08 03:31:18;;;;;;;4.50;1.08;;;22.40;99.90;;;;;;5074609;28;20202;-86
2022/09/08 03:33:49;;;;;;;4.93;1.00;;;22.40;99.90;;;;;;5075480;28;20200;-86
2022/09/08 03:36:22;;;;;;;7.32;1.35;;;22.30;99.90;;;;;;5075688;28;20204;-84
2022/09/08 03:38:54;;;;;;;6.88;1.50;;;22.20;99.90;;;;;;5058192;28;20232;-86
2022/09/08 03:41:25;;;;;;;7.35;1.38;;;22.10;99.90;;;;;;5056334;28;20240;-86
2022/09/08 03:43:59;;;;;;;7.10;1.20;;;22.00;99.90;;;;;;5054179;28;20195;-87
2022/09/08 03:46:31;;;;;;;6.20;1.20;;;21.90;99.90;;;;;;5070083;28;20283;-87
2022/09/08 03:49:01;;;;;;;4.80;1.30;;;21.70;99.90;;;;;;5066593;28;20192;-85
2022/09/08 03:51:32;;;;;;;3.90;0.80;;;21.50;99.90;;;;;;5065276;28;20216;-83
2022/09/08 03:56:53;;;;;;;8.85;1.33;;;21.30;99.90;;;;;;5074174;28;20202;-85
2022/09/08 03:59:25;;;;;;;7.25;1.77;;;21.20;99.90;;;;;;5055022;28;20283;-83
2022/09/08 04:01:56;;;;;;;7.72;1.52;;;21.00;99.90;;;;;;5073825;28;20686;-83
2022/09/08 04:04:30;;;;;;;6.95;1.48;;;21.00;99.90;;;;;;5061898;28;20192;-89
2022/09/08 04:07:02;;;;;;;4.47;1.02;;;21.00;99.90;;;;;;5022381;28;20192;-86
2022/09/08 04:09:33;;;;;;;6.32;1.58;;;21.10;99.90;;;;;;5054722;28;20200;-85
2022/09/08 04:12:04;;;;;;;5.90;1.27;;;21.10;99.90;;;;;;5059752;28;20188;-83
2022/09/08 04:14:37;;;;;;;7.03;1.38;;;21.00;99.90;;;;;;5071381;28;20282;-84
2022/09/08 04:17:08;;;;;;;11.65;1.70;;;21.10;99.90;;;;;;5069266;28;20556;-85
2022/09/08 04:19:39;;;;;;;6.10;1.35;;;21.10;99.90;;;;;;5071983;28;20226;-84
2022/09/08 04:22:10;;;;;;;8.15;1.42;;;21.10;99.90;;;;;;5073063;28;20196;-82
2022/09/08 04:24:41;;;;;;;6.43;1.35;;;21.20;99.90;;;;;;5071325;28;20215;-85
2022/09/08 04:27:12;;;;;;;8.13;1.42;;;21.20;99.90;;;;;;5071468;28;20218;-83
2022/09/08 04:29:45;;;;;;;5.32;1.35;;;21.40;99.90;;;;;;5069000;28;20662;-83
2022/09/08 04:32:16;;;;;;;4.57;1.25;;;21.40;99.90;;;;;;5069222;28;20210;-83
2022/09/08 04:34:47;;;;;;;7.80;1.83;;;21.40;99.90;;;;;;5071316;28;20238;-83
2022/09/08 04:37:17;;;;;;;8.55;1.40;;;21.30;99.90;;;;;;5061784;28;20674;-84
2022/09/08 04:39:50;;;;;;;4.65;1.55;;;21.30;99.90;;;;;;5067451;28;20616;-83
2022/09/08 04:42:22;;;;;;;5.57;1.48;;;21.30;99.90;;;;;;5070786;28;20204;-84
2022/09/08 04:44:54;;;;;;;4.47;1.10;;;21.30;99.90;;;;;;5067278;28;20208;-83
2022/09/08 04:47:25;;;;;;;4.45;1.60;;;21.40;99.90;;;;;;5068580;28;20195;-86
2022/09/08 04:50:02;;;;;;;8.07;1.50;;;21.40;99.90;;;;;;5076409;28;20200;-84
2022/09/08 04:52:36;;;;;;;5.57;1.30;;;21.40;99.90;;;;;;5082320;28;20202;-84
2022/09/08 04:55:11;;;;;;;4.65;1.15;;;21.50;99.90;;;;;;5085008;28;20231;-84
2022/09/08 04:57:42;;;;;;;4.88;1.27;;;21.50;99.90;;;;;;5076763;28;20203;-84
2022/09/08 05:00:20;;;;;;;6.68;1.50;;;21.60;99.90;;;;;;5076464;28;20195;-84
2022/09/08 05:02:52;;;;;;;5.22;1.45;;;21.60;99.90;;;;;;5073067;28;20199;-86
2022/09/08 05:05:38;;;;;;;8.85;1.77;;;21.50;99.90;;;;;;5073075;28;20221;-84
2022/09/08 05:08:08;;;;;;;10.63;2.08;;;21.40;99.90;;;;;;5070173;28;20188;-85
2022/09/08 05:10:41;;;;;;;4.28;1.30;;;21.30;99.90;;;;;;5071513;28;20542;-85
2022/09/08 05:13:12;;;;;;;8.10;1.48;;;21.20;99.90;;;;;;5078204;28;20294;-86
2022/09/08 05:15:46;;;;;;;7.28;1.70;;;21.20;99.90;;;;;;5070260;28;20234;-87
2022/09/08 05:18:17;;;;;;;6.05;1.15;;;21.30;99.90;;;;;;5083844;28;20191;-86
2022/09/08 05:20:57;;;;;;;4.57;1.10;;;21.10;99.90;;;;;;5093400;28;20188;-86
2022/09/08 05:23:32;;;;;;;8.50;1.40;;;21.10;99.90;;;;;;5081304;28;20184;-86
2022/09/08 05:26:08;;;;;;;8.88;1.67;;;21.00;99.90;;;;;;5079743;28;20231;-86
2022/09/08 05:28:40;;;;;;;5.78;1.80;;;21.10;99.90;;;;;;5066821;28;20262;-87
2022/09/08 05:31:14;;;;;;;5.72;1.63;;;21.20;99.90;;;;;;5061929;28;20194;-87
2022/09/08 05:33:47;;;;;;;9.38;1.80;;;21.20;99.90;;;;;;5079758;28;20208;-86
2022/09/08 05:36:26;;;;;;;7.28;1.50;;;21.00;99.90;;;;;;5073338;28;20208;-87
2022/09/08 05:38:59;;;;;;;7.85;1.73;;;20.90;99.90;;;;;;5066010;28;20227;-86
2022/09/08 05:41:33;;;;;;;7.65;1.60;;;20.90;99.90;;;;;;5074613;28;20206;-86
2022/09/08 05:44:10;;;;;;;5.07;1.40;;;20.90;99.90;;;;;;5075351;28;20192;-87
2022/09/08 05:46:55;;;;;;;7.10;1.67;;;20.90;99.90;;;;;;5075825;28;20282;-86
2022/09/08 05:49:29;;;;;;;10.73;1.73;;;20.70;99.90;;;;;;5080717;28;20259;-85
2022/09/08 05:52:03;;;;;;;6.65;1.70;;;20.70;99.90;;;;;;5057719;28;20204;-88
2022/09/08 05:54:35;;;;;;;9.52;1.42;;;20.60;99.90;;;;;;5078959;28;20245;-85
2022/09/08 05:57:06;;;;;;;8.38;1.58;;;20.50;99.90;;;;;;5093634;28;20216;-85
2022/09/08 05:59:37;;;;;;;6.88;1.48;;;20.50;99.90;;;;;;5066892;28;20192;-85
2022/09/08 06:02:12;;;;;;;7.07;1.40;;;20.60;99.90;;;;;;5070092;28;20192;-85
2022/09/08 06:04:43;;;;;;;7.00;1.58;;;20.50;99.90;;;;;;5072092;28;20679;-86
2022/09/08 06:07:14;;;;;;;6.72;1.60;;;20.50;99.90;;;;;;5066957;28;20260;-85
2022/09/08 06:09:46;;;;;;;12.27;1.60;;;20.60;99.90;;;;;;5067956;28;20218;-85
2022/09/08 06:12:20;;;;;;;10.70;1.63;;;20.60;99.90;;;;;;5068523;28;20682;-85
2022/09/08 06:15:00;;;;;;;8.70;1.30;;;20.60;99.90;;;;;;5078813;28;20179;-85
2022/09/08 06:17:33;;;;;;;7.95;1.60;;;20.60;99.90;;;;;;5074909;28;20246;-85
2022/09/08 06:20:05;;;;;;;11.82;1.85;;;20.60;99.90;;;;;;5066261;28;20205;-85
2022/09/08 06:22:36;;;;;;;6.00;1.75;;;20.50;99.90;;;;;;5052522;28;20310;-85
2022/09/08 06:25:07;;;;;;;7.68;1.85;;;20.40;99.90;;;;;;5052509;28;20552;-84
2022/09/08 06:27:47;;;;;;;9.63;1.80;;;20.30;99.90;;;;;;5060144;28;20207;-85
2022/09/08 06:30:19;;;;;;;7.97;1.90;;;20.30;99.90;;;;;;5056710;28;20206;-86
2022/09/08 06:32:55;;;;;;;8.48;1.85;;;20.20;99.90;;;;;;5067830;28;20608;-85
2022/09/08 06:35:29;;;;;;;7.93;1.83;;;20.20;99.90;;;;;;5058754;28;20220;-84
2022/09/08 06:38:02;;;;;;;6.20;1.50;;;20.10;99.90;;;;;;5076137;28;20275;-85
2022/09/08 06:40:37;;;;;;;9.00;1.65;;;20.00;99.90;;;;;;5071893;28;20201;-84
2022/09/08 06:43:15;;;;;;;10.77;2.03;;;19.90;99.90;;;;;;5071746;28;20199;-85
2022/09/08 06:45:49;;;;;;;7.72;1.77;;;19.90;99.90;;;;;;5067329;28;20192;-86
2022/09/08 06:48:34;;;;;;;7.75;1.40;;;19.90;99.90;;;;;;5067990;28;20198;-85
2022/09/08 06:51:23;;;;;;;7.45;1.70;;;19.90;99.90;;;;;;5071944;28;20286;-86
2022/09/08 06:54:06;;;;;;;9.07;1.67;;;19.90;99.90;;;;;;5072886;28;20295;-85
2022/09/08 06:56:52;;;;;;;7.28;1.83;;;19.90;99.90;;;;;;5054977;28;20590;-87
2022/09/08 06:59:36;;;;;;;8.57;1.80;;;19.80;99.90;;;;;;5072695;28;20199;-86
2022/09/08 07:02:24;;;;;;;7.82;1.77;;;19.80;99.90;;;;;;5076267;28;20202;-87
2022/09/08 07:05:11;;;;;;;10.20;1.50;;;19.70;99.90;;;;;;5065690;28;20199;-84
2022/09/08 07:07:51;;;;;;;7.80;1.30;;;19.70;99.90;;;;;;5060773;28;20203;-85
2022/09/08 07:10:27;;;;;;;6.53;1.55;;;19.50;99.90;;;;;;5065275;28;20560;-85
2022/09/08 07:13:05;;;;;;;12.23;2.00;;;19.50;99.90;;;;;;5069532;28;20204;-85
2022/09/08 07:15:52;;;;;;;8.52;1.52;;;19.50;99.90;;;;;;5071059;28;20218;-83
2022/09/08 07:18:28;;;;;;;9.57;1.90;;;19.40;99.90;;;;;;5069172;28;20204;-84
2022/09/08 07:21:16;;;;;;;12.05;2.05;;;19.40;99.90;;;;;;5061235;28;20203;-84
2022/09/08 07:23:47;;;;;;;7.93;1.80;;;19.40;99.90;;;;;;5060929;28;20283;-84
2022/09/08 07:26:24;;;;;;;11.70;1.95;;;19.40;99.90;;;;;;5074574;28;20562;-85
2022/09/08 07:28:58;;;;;;;10.70;2.80;;;19.40;99.90;;;;;;5075018;28;20196;-84
2022/09/08 07:31:30;;;;;;;10.73;1.70;;;19.40;99.90;;;;;;5065340;28;20198;-82
2022/09/08 07:34:07;;;;;;;12.43;2.25;;;19.30;99.90;;;;;;5073318;28;20654;-84
2022/09/08 07:36:45;;;;;;;10.50;2.17;;;19.30;99.90;;;;;;5072666;28;20261;-83
2022/09/08 07:39:23;;;;;;;9.25;1.98;;;19.20;99.90;;;;;;5064644;28;20250;-84
2022/09/08 07:41:58;;;;;;;9.25;1.85;;;19.10;99.90;;;;;;5073228;28;20200;-85
2022/09/08 07:44:30;;;;;;;10.50;2.22;;;19.10;99.90;;;;;;5071837;28;20207;-85
2022/09/08 07:47:30;;;;;;;10.73;2.22;;;19.10;99.90;;;;;;5063616;28;20192;-86
2022/09/08 07:50:12;;;;;;;14.30;2.33;;;19.10;99.90;;;;;;5069017;28;20214;-85
2022/09/08 07:52:53;;;;;;;12.70;1.80;;;19.00;99.90;;;;;;5073536;28;20203;-85
2022/09/08 07:55:30;;;;;;;11.52;2.58;;;19.10;99.90;;;;;;5065774;28;20257;-86
2022/09/08 07:58:10;;;;;;;13.57;2.40;;;19.00;99.90;;;;;;5071964;28;20199;-85
2022/09/08 08:00:52;;;;;;;10.80;1.98;;;18.90;99.90;;;;;;5083188;28;20778;-87
2022/09/08 08:03:41;;;;;;;11.77;2.63;;;18.90;99.90;;;;;;5062281;28;20659;-87
2022/09/08 08:06:19;;;;;;;13.35;2.13;;;18.90;99.90;;;;;;5068320;28;20208;-88
2022/09/08 08:09:06;;;;;;;7.32;2.08;;;18.90;99.90;;;;;;5072191;28;20195;-87
2022/09/08 08:11:42;;;;;;;10.82;1.98;;;18.90;99.90;;;;;;5069032;28;20588;-88
2022/09/08 08:14:19;;;;;;;10.88;3.03;;;18.80;99.90;;;;;;5072429;28;20202;-87
2022/09/08 08:16:58;;;;;;;10.48;2.38;;;18.80;99.90;;;;;;5061783;28;20322;-87
2022/09/08 08:20:02;;;;;;;14.05;2.83;;;18.80;99.90;;;;;;5053405;28;20228;-86
2022/09/08 08:22:50;;;;;;;11.73;2.40;;;18.80;99.90;;;;;;5061383;28;20264;-88
2022/09/08 08:25:29;;;;;;;9.88;2.80;;;18.80;99.90;;;;;;5070331;28;20204;-85
2022/09/08 08:28:16;;;;;;;20.10;3.90;;;18.80;99.90;;;;;;5075400;28;20222;-86
2022/09/08 08:31:02;;;;;;;7.63;2.22;;;18.80;99.90;;;;;;5067111;28;20203;-88
2022/09/08 08:33:39;;;;;;;10.88;2.00;;;18.70;99.90;;;;;;5065286;28;20283;-88
2022/09/08 08:36:15;;;;;;;9.68;2.22;;;18.70;99.90;;;;;;5072985;28;20226;-90
2022/09/08 08:38:48;;;;;;;13.27;2.78;;;18.70;99.90;;;;;;5073131;28;20264;-89
2022/09/08 08:41:30;;;;;;;11.65;2.60;;;18.70;99.90;;;;;;5076409;28;21218;-90
2022/09/08 08:44:25;;;;;;;13.90;2.75;;;18.80;99.90;;;;;;5074993;28;20655;-92
2022/09/08 08:47:17;;;;;;;8.90;2.35;;;18.80;99.90;;;;;;5072450;28;20199;-90
2022/09/08 08:50:18;;;;;;;11.43;2.47;;;18.70;99.90;;;;;;5073005;28;20200;-87
2022/09/08 08:53:03;;;;;;;8.95;2.63;;;18.70;99.90;;;;;;5081348;28;20198;-87
2022/09/08 08:55:46;;;;;;;11.52;2.38;;;18.70;99.90;;;;;;5084572;28;20200;-84
2022/09/08 08:58:47;;;;;;;6.95;1.70;;;18.70;99.90;;;;;;5064814;28;20207;-85
2022/09/08 09:01:38;;;;;;;10.82;1.95;;;18.60;99.90;;;;;;5069261;28;20302;-85
2022/09/08 09:04:55;;;;;;;11.35;2.28;;;18.60;99.90;;;;;;5069690;28;20206;-87
2022/09/08 09:07:50;;;;;;;11.20;2.40;;;18.70;99.90;;;;;;5008511;28;20209;-86
2022/09/08 09:10:48;;;;;;;14.60;2.55;;;18.60;99.90;;;;;;5055985;28;20191;-86
2022/09/08 09:13:45;;;;;;;8.13;2.33;;;18.70;99.90;;;;;;5066489;28;20196;-86
2022/09/08 09:16:50;;;;;;;12.15;2.90;;;18.60;99.90;;;;;;5070827;28;20228;-87
2022/09/08 09:19:51;;;;;;;9.60;2.33;;;18.70;99.90;;;;;;5047509;28;20218;-86
2022/09/08 09:22:31;;;;;;;13.10;2.30;;;18.70;99.90;;;;;;5037528;28;20270;-86
2022/09/08 09:25:15;;;;;;;12.68;2.20;;;18.70;99.90;;;;;;5052972;28;20197;-87
2022/09/08 09:27:47;;;;;;;11.10;2.58;;;18.80;99.90;;;;;;5060399;28;20202;-87
2022/09/08 09:30:24;;;;;;;11.05;2.22;;;18.80;99.90;;;;;;5071892;28;20188;-86
2022/09/08 09:33:39;;;;;;;13.50;2.85;;;18.70;99.90;;;;;;5072087;28;20196;-85
2022/09/08 09:36:31;;;;;;;14.15;2.20;;;18.70;99.90;;;;;;5070474;28;20196;-86
2022/09/08 09:39:35;;;;;;;10.90;2.33;;;18.70;99.90;;;;;;5070659;28;20698;-85
2022/09/08 09:42:32;;;;;;;13.27;2.47;;;18.80;99.90;;;;;;5035723;28;20215;-86
2022/09/08 09:45:25;;;;;;;9.80;2.53;;;18.80;99.90;;;;;;5064745;28;20199;-87
2022/09/08 09:48:27;;;;;;;13.90;2.55;;;18.80;99.90;;;;;;5070920;28;20192;-83
2022/09/08 09:51:18;;;;;;;14.00;2.65;;;18.70;99.90;;;;;;5070510;28;20195;-84
2022/09/08 09:54:45;;;;;;;12.60;2.42;;;18.70;99.90;;;;;;5071065;28;20670;-88
2022/09/08 09:58:11;;;;;;;9.73;2.30;;;18.70;99.90;;;;;;5036285;28;20814;-87
2022/09/08 10:01:07;;;;;;;12.07;2.38;;;18.70;99.90;;;;;;4989130;28;20289;-82
2022/09/08 10:04:07;;;;;;;12.05;2.65;;;18.70;99.90;;;;;;5067368;28;20229;-83
2022/09/08 10:06:51;;;;;;;14.48;2.63;;;18.70;99.90;;;;;;5060778;28;20224;-88
2022/09/08 10:09:56;;;;;;;9.63;2.03;;;18.80;99.90;;;;;;5066153;28;20286;-85
2022/09/08 10:13:33;;;;;;;10.80;1.90;;;18.70;99.90;;;;;;5072336;28;20635;-86
2022/09/08 10:16:36;;;;;;;13.57;2.33;;;18.70;99.90;;;;;;5070382;28;20206;-83
2022/09/08 10:19:43;;;;;;;13.45;2.30;;;18.70;99.90;;;;;;5064903;28;20245;-82
2022/09/08 10:22:44;;;;;;;12.70;2.30;;;18.70;99.90;;;;;;5069449;28;20211;-84
2022/09/08 10:25:46;;;;;;;12.48;2.60;;;18.70;99.90;;;;;;5070835;28;20211;-85
2022/09/08 10:32:15;;;;;;;15.63;2.55;;;18.60;99.90;;;;;;4982895;28;20242;-83
2022/09/08 10:35:18;;;;;;;12.70;2.47;;;18.70;99.90;;;;;;4979928;28;20302;-85
2022/09/08 10:38:20;;;;;;;12.25;2.17;;;18.70;99.90;;;;;;4990770;28;20245;-85
2022/09/08 10:41:18;;;;;;;12.07;1.95;;;18.70;99.90;;;;;;5071373;28;20209;-84
2022/09/08 10:44:27;;;;;;;9.75;1.90;;;18.70;99.90;;;;;;5076824;28;20199;-84
2022/09/08 10:47:32;;;;;;;11.65;2.25;;;18.70;99.90;;;;;;5033867;28;20714;-85
2022/09/08 10:50:26;;;;;;;11.13;2.65;;;18.70;99.90;;;;;;5071208;28;20208;-84
2022/09/08 10:53:44;;;;;;;10.63;1.90;;;18.70;99.90;;;;;;5063249;28;20285;-84
2022/09/08 10:56:18;;;;;;;12.95;2.38;;;18.70;99.90;;;;;;5069604;28;20192;-83
2022/09/08 10:59:25;;;;;;;14.10;2.38;;;18.70;99.90;;;;;;5073921;28;20295;-84
2022/09/08 11:02:16;;;;;;;7.30;1.55;;;18.70;99.90;;;;;;5059904;28;20196;-83
2022/09/08 11:05:24;;;;;;;11.65;2.20;;;18.60;99.90;;;;;;5072815;28;20202;-83
2022/09/08 11:08:29;;;;;;;9.73;2.08;;;18.60;99.90;;;;;;5032545;28;20295;-84
2022/09/08 11:11:33;;;;;;;11.32;2.20;;;18.60;99.90;;;;;;5053704;28;20231;-84
2022/09/08 11:14:08;;;;;;;6.97;1.95;;;18.50;99.90;;;;;;5048540;28;20223;-84
2022/09/08 11:17:14;;;;;;;12.20;2.00;;;18.50;99.90;;;;;;5066124;28;20187;-84
2022/09/08 11:19:48;;;;;;;9.68;1.60;;;18.50;99.90;;;;;;5066170;28;20218;-84
2022/09/08 11:22:38;;;;;;;7.55;1.70;;;18.50;99.90;;;;;;5073984;28;20246;-84
2022/09/08 11:25:29;;;;;;;7.70;1.95;;;18.40;99.90;;;;;;5073476;28;20200;-85
2022/09/08 11:28:13;;;;;;;11.40;1.98;;;18.40;99.90;;;;;;5055887;28;20531;-84
2022/09/08 11:30:52;;;;;;;10.45;2.10;;;18.40;99.90;;;;;;5065013;28;20192;-84
2022/09/08 11:33:47;;;;;;;8.90;1.92;;;18.40;99.90;;;;;;5058436;28;20701;-84
2022/09/08 11:36:33;;;;;;;7.63;1.75;;;18.50;99.90;;;;;;5073821;28;20268;-84
2022/09/08 11:39:28;;;;;;;8.52;1.73;;;18.50;99.90;;;;;;5081198;28;20291;-85
2022/09/08 11:42:42;;;;;;;10.70;2.13;;;18.40;99.90;;;;;;5080241;28;20295;-85
2022/09/08 11:45:23;;;;;;;9.60;1.80;;;18.50;99.90;;;;;;5024931;28;20211;-85
2022/09/08 11:48:18;;;;;;;10.50;1.80;;;18.50;99.90;;;;;;5080185;28;20210;-86
2022/09/08 11:51:07;;;;;;;11.25;2.05;;;18.40;99.90;;;;;;5081305;28;20230;-85
2022/09/08 11:54:06;;;;;;;8.60;1.52;;;18.50;99.90;;;;;;5077591;28;20189;-86
2022/09/08 11:57:09;;;;;;;9.93;1.80;;;18.50;99.90;;;;;;5062781;28;20211;-85
2022/09/08 12:00:07;;;;;;;9.57;1.98;;;18.50;99.90;;;;;;5044566;28;20628;-86
2022/09/08 12:03:18;;;;;;;6.45;2.20;;;18.50;99.90;;;;;;5076011;28;20180;-85
2022/09/08 12:06:13;;;;;;;11.63;2.70;;;18.50;99.90;;;;;;5065040;28;20203;-86
2022/09/08 12:09:12;;;;;;;12.57;2.17;;;18.40;99.90;;;;;;5071701;28;20200;-85
2022/09/08 12:12:10;;;;;;;9.90;1.83;;;18.40;99.90;;;;;;5060124;28;20200;-85
2022/09/08 12:14:52;;;;;;;6.75;1.80;;;18.40;99.90;;;;;;5072626;28;20196;-86
2022/09/08 12:17:36;;;;;;;10.88;2.10;;;18.40;99.90;;;;;;5076384;28;20767;-85
2022/09/08 12:20:27;;;;;;;7.78;1.85;;;18.30;99.90;;;;;;5077068;28;20212;-83
2022/09/08 12:23:20;;;;;;;10.77;1.70;;;18.30;99.90;;;;;;5094941;28;20210;-85
2022/09/08 12:26:27;;;;;;;7.45;1.45;;;18.30;99.90;;;;;;5077252;28;20292;-84
2022/09/08 12:29:14;;;;;;;13.00;1.77;;;18.30;99.90;;;;;;5011848;28;20233;-85
2022/09/08 12:32:01;;;;;;;9.55;1.58;;;18.20;99.90;;;;;;5073740;28;20860;-85
2022/09/08 12:35:00;;;;;;;5.32;1.45;;;18.10;99.90;;;;;;5074144;28;20198;-85
2022/09/08 12:37:50;;;;;;;10.57;1.90;;;18.10;99.90;;;;;;5073774;28;20228;-84
2022/09/08 12:40:41;;;;;;;8.73;1.83;;;18.10;99.90;;;;;;5072117;28;20207;-85
2022/09/08 12:43:22;;;;;;;9.27;1.83;;;18.10;99.90;;;;;;5070248;28;20586;-84
2022/09/08 12:46:34;;;;;;;5.53;1.90;;;18.00;99.90;;;;;;5059384;28;20203;-84
2022/09/08 12:49:38;;;;;;;10.95;2.05;;;18.00;99.90;;;;;;5054271;28;20216;-85
2022/09/08 12:52:19;;;;;;;6.53;1.52;;;18.00;99.90;;;;;;5065881;28;20201;-84
2022/09/08 12:55:04;;;;;;;11.50;1.73;;;18.00;99.90;;;;;;5062983;28;20212;-84
2022/09/08 12:57:57;;;;;;;9.18;2.10;;;18.00;99.90;;;;;;5073609;28;20230;-84
2022/09/08 13:00:31;;;;;;;5.85;1.50;;;17.90;99.90;;;;;;5077683;28;20208;-84
2022/09/08 13:03:17;;;;;;;6.22;1.52;;;18.00;99.90;;;;;;5074069;28;20202;-85
2022/09/08 13:06:10;;;;;;;9.07;1.65;;;17.90;99.90;;;;;;5071106;28;20210;-81
2022/09/08 13:08:55;;;;;;;7.30;1.63;;;17.90;99.90;;;;;;5042932;28;20215;-82
2022/09/08 13:11:41;;;;;;;5.32;1.70;;;17.90;99.90;;;;;;5079529;28;20199;-83
2022/09/08 13:14:15;;;;;;;5.78;1.40;;;17.80;99.90;;;;;;5071016;28;20205;-83
2022/09/08 13:16:57;;;;;;;6.13;1.63;;;17.80;99.90;;;;;;5061503;28;20204;-83
2022/09/08 13:19:35;;;;;;;5.70;1.50;;;17.90;99.90;;;;;;5071155;28;20567;-84
2022/09/08 13:22:27;;;;;;;7.43;2.03;;;17.90;99.90;;;;;;5066827;28;20192;-84
2022/09/08 13:25:16;;;;;;;11.50;1.90;;;17.90;99.90;;;;;;5076354;28;20208;-82
2022/09/08 13:28:15;;;;;;;6.40;1.90;;;17.90;99.90;;;;;;5071372;28;20584;-83
2022/09/08 13:31:01;;;;;;;8.30;1.80;;;17.90;99.90;;;;;;5070951;28;20202;-83
2022/09/08 13:34:00;;;;;;;10.70;2.15;;;17.90;99.90;;;;;;5061276;28;20206;-83
2022/09/08 13:37:04;;;;;;;11.95;2.30;;;17.90;99.90;;;;;;5034841;28;20558;-83
2022/09/08 13:39:58;;;;;;;8.32;1.75;;;17.90;99.90;;;;;;5059212;28;20581;-82
2022/09/08 13:42:49;;;;;;;10.85;2.00;;;17.90;99.90;;;;;;5072438;28;20192;-86
2022/09/08 13:45:34;;;;;;;9.48;1.90;;;17.90;99.90;;;;;;5072048;28;20194;-83
2022/09/08 13:48:29;;;;;;;9.07;1.90;;;17.90;99.90;;;;;;5075516;28;20196;-83
2022/09/08 13:51:37;;;;;;;8.13;1.75;;;17.90;99.90;;;;;;5070301;28;20738;-83
2022/09/08 13:54:37;;;;;;;8.18;2.22;;;17.90;99.90;;;;;;5020969;28;20628;-84
2022/09/08 13:57:25;;;;;;;9.75;2.30;;;17.90;99.90;;;;;;5051598;28;20276;-83
2022/09/08 14:00:05;;;;;;;9.07;2.05;;;17.80;99.90;;;;;;5057299;28;20199;-83
2022/09/08 14:02:46;;;;;;;12.30;2.25;;;17.80;99.90;;;;;;5072075;28;20210;-83
2022/09/08 14:05:26;;;;;;;8.35;2.15;;;17.90;99.90;;;;;;5069695;28;20628;-83
2022/09/08 14:08:05;;;;;;;8.50;2.05;;;17.90;99.90;;;;;;5070937;28;20207;-84
2022/09/08 14:11:11;;;;;;;11.25;2.25;;;17.90;99.90;;;;;;5071159;28;20202;-84